createdAt,value
2019-05-09T00:00:49.250Z,0
2019-05-09T00:01:49.187Z,0
2019-05-09T00:02:49.479Z,0
2019-05-09T00:03:49.551Z,0
2019-05-09T00:04:49.270Z,0
2019-05-09T00:05:49.745Z,0
2019-05-09T00:06:48.797Z,0
2019-05-09T00:07:49.227Z,0
2019-05-09T00:08:49.505Z,0
2019-05-09T00:09:49.385Z,0
2019-05-09T00:10:53.420Z,0
2019-05-09T00:11:49.604Z,0
2019-05-09T00:12:48.996Z,0
2019-05-09T00:13:48.798Z,0
2019-05-09T00:14:48.731Z,0
2019-05-09T00:15:49.004Z,0
2019-05-09T00:16:49.175Z,0
2019-05-09T00:17:49.444Z,0
2019-05-09T00:18:49.371Z,0
2019-05-09T00:19:49.148Z,0
2019-05-09T00:20:48.847Z,0
2019-05-09T00:21:48.955Z,0
2019-05-09T00:22:48.785Z,0
2019-05-09T00:23:49.407Z,0
2019-05-09T00:24:49.988Z,0
2019-05-09T00:25:48.637Z,0
2019-05-09T00:26:49.488Z,0
2019-05-09T00:27:48.963Z,0
2019-05-09T00:28:49.320Z,0
2019-05-09T00:29:49.405Z,0
2019-05-09T00:30:48.960Z,0
2019-05-09T00:31:49.091Z,0
2019-05-09T00:32:48.441Z,0
2019-05-09T00:33:52.839Z,0
2019-05-09T00:34:49.456Z,0
2019-05-09T00:35:49.831Z,0
2019-05-09T00:36:49.002Z,0
2019-05-09T00:37:48.468Z,0
2019-05-09T00:38:48.762Z,0
2019-05-09T00:39:48.714Z,0
2019-05-09T00:41:06.500Z,0
2019-05-09T00:41:49.173Z,0
2019-05-09T00:42:49.343Z,0
2019-05-09T00:43:49.598Z,0
2019-05-09T00:44:48.390Z,0
2019-05-09T00:45:49.210Z,0
2019-05-09T00:46:50.909Z,0
2019-05-09T00:47:48.892Z,0
2019-05-09T00:48:49.133Z,0
2019-05-09T00:49:48.729Z,0
2019-05-09T00:50:48.970Z,0
2019-05-09T00:51:48.969Z,0
2019-05-09T00:52:50.720Z,0
2019-05-09T00:53:49.989Z,0
2019-05-09T00:54:49.035Z,0
2019-05-09T00:55:48.920Z,0
2019-05-09T00:56:48.900Z,0
2019-05-09T00:57:49.214Z,0
2019-05-09T00:58:49.325Z,0
2019-05-09T00:59:50.212Z,0
2019-05-09T01:00:49.255Z,0
2019-05-09T01:01:48.960Z,0
2019-05-09T01:02:48.844Z,0
2019-05-09T01:03:48.564Z,0
2019-05-09T01:04:49.042Z,0
2019-05-09T01:05:50.456Z,0
2019-05-09T01:06:48.746Z,0
2019-05-09T01:07:50.845Z,0
2019-05-09T01:08:49.479Z,0
2019-05-09T01:09:49.212Z,0
2019-05-09T01:10:48.939Z,0
2019-05-09T01:11:49.585Z,0
2019-05-09T01:12:49.747Z,0
2019-05-09T01:13:48.733Z,0
2019-05-09T01:14:48.571Z,0
2019-05-09T01:15:49.293Z,0
2019-05-09T01:16:49.301Z,0
2019-05-09T01:17:49.731Z,0
2019-05-09T01:18:49.025Z,0
2019-05-09T01:19:48.540Z,0
2019-05-09T01:20:49.324Z,0
2019-05-09T01:21:49.206Z,0
2019-05-09T01:22:48.912Z,0
2019-05-09T01:23:49.320Z,0
2019-05-09T01:24:49.555Z,0
2019-05-09T01:25:48.905Z,0
2019-05-09T01:26:48.851Z,0
2019-05-09T01:27:50.930Z,0
2019-05-09T01:28:49.459Z,0
2019-05-09T01:29:53.403Z,0
2019-05-09T01:35:05.512Z,0
2019-05-09T01:35:18.828Z,0
2019-05-09T01:36:17.171Z,0
2019-05-09T01:37:16.841Z,0
2019-05-09T01:38:17.000Z,0
2019-05-09T01:39:16.539Z,0
2019-05-09T01:40:18.512Z,0
2019-05-09T01:41:37.460Z,0
2019-05-09T01:42:18.891Z,0
2019-05-09T01:43:19.044Z,0
2019-05-09T01:44:18.786Z,0
2019-05-09T01:45:16.868Z,0
2019-05-09T01:46:17.159Z,0
2019-05-09T01:47:17.146Z,0
2019-05-09T01:48:16.720Z,0
2019-05-09T01:49:19.021Z,0
2019-05-09T01:50:16.719Z,0
2019-05-09T01:51:18.994Z,0
2019-05-09T01:52:18.883Z,0
2019-05-09T01:53:18.932Z,0
2019-05-09T01:54:18.542Z,0
2019-05-09T01:55:16.932Z,0
2019-05-09T01:56:16.738Z,0
2019-05-09T01:57:18.975Z,0
2019-05-09T01:58:16.582Z,0
2019-05-09T01:59:19.155Z,0
2019-05-09T02:00:18.501Z,0
2019-05-09T02:01:18.714Z,0
2019-05-09T02:02:19.357Z,0
2019-05-09T02:03:16.655Z,0
2019-05-09T02:04:18.796Z,0
2019-05-09T02:05:18.996Z,0
2019-05-09T02:06:18.854Z,0
2019-05-09T02:07:18.591Z,0
2019-05-09T02:08:16.999Z,0
2019-05-09T02:09:16.766Z,0
2019-05-09T02:10:16.671Z,0
2019-05-09T02:11:18.837Z,0
2019-05-09T02:12:19.444Z,0
2019-05-09T02:13:18.874Z,0
2019-05-09T02:14:26.615Z,0
2019-05-09T02:15:18.590Z,0
2019-05-09T02:16:16.897Z,0
2019-05-09T02:17:23.257Z,0
2019-05-09T02:18:18.910Z,0
2019-05-09T02:19:18.761Z,0
2019-05-09T02:20:18.986Z,0
2019-05-09T02:21:20.159Z,0
2019-05-09T02:22:18.300Z,0
2019-05-09T02:23:17.043Z,0
2019-05-09T02:24:19.196Z,0
2019-05-09T02:25:18.740Z,0
2019-05-09T02:26:18.908Z,0
2019-05-09T02:27:18.483Z,0
2019-05-09T02:28:16.869Z,0
2019-05-09T02:29:19.331Z,0
2019-05-09T02:30:20.433Z,0
2019-05-09T02:31:19.122Z,0
2019-05-09T02:32:19.585Z,0
2019-05-09T02:33:19.772Z,0
2019-05-09T02:34:20.005Z,0
2019-05-09T02:35:16.613Z,0
2019-05-09T02:36:21.429Z,0
2019-05-09T02:37:18.665Z,0
2019-05-09T02:38:19.933Z,0
2019-05-09T02:39:18.822Z,0
2019-05-09T02:40:21.336Z,0
2019-05-09T02:41:19.540Z,0
2019-05-09T02:42:24.772Z,0
2019-05-09T02:43:18.616Z,0
2019-05-09T02:44:31.654Z,0
2019-05-09T02:45:19.096Z,0
2019-05-09T02:46:21.268Z,0
2019-05-09T02:47:17.976Z,0
2019-05-09T02:48:18.572Z,0
2019-05-09T02:49:19.044Z,0
2019-05-09T02:50:19.429Z,0
2019-05-09T02:51:18.449Z,0
2019-05-09T02:52:19.698Z,0
2019-05-09T02:53:18.869Z,0
2019-05-09T02:54:18.990Z,0
2019-05-09T02:55:20.998Z,0
2019-05-09T02:56:18.727Z,0
2019-05-09T02:57:18.409Z,0
2019-05-09T02:58:20.256Z,0
2019-05-09T02:59:21.079Z,0
2019-05-09T03:00:19.916Z,0
2019-05-09T03:01:18.880Z,0
2019-05-09T03:02:19.454Z,0
2019-05-09T03:03:19.766Z,0
2019-05-09T03:04:18.830Z,0
2019-05-09T03:05:19.508Z,0
2019-05-09T03:06:19.538Z,0
2019-05-09T03:07:21.152Z,0
2019-05-09T03:08:19.140Z,0
2019-05-09T03:09:18.954Z,0
2019-05-09T03:10:19.145Z,0
2019-05-09T03:11:21.592Z,0
2019-05-09T03:12:42.614Z,0
2019-05-09T03:13:18.985Z,0
2019-05-09T03:14:28.273Z,0
2019-05-09T03:15:18.546Z,0
2019-05-09T03:16:19.032Z,0
2019-05-09T03:17:18.526Z,0
2019-05-09T03:18:18.361Z,0
2019-05-09T03:19:19.354Z,0
2019-05-09T03:20:18.161Z,0
2019-05-09T03:21:19.052Z,0
2019-05-09T03:22:18.721Z,0
2019-05-09T03:23:19.064Z,0
2019-05-09T03:24:21.025Z,0
2019-05-09T03:25:19.059Z,0
2019-05-09T03:26:19.317Z,0
2019-05-09T03:27:18.688Z,0
2019-05-09T03:28:20.887Z,4
2019-05-09T03:29:18.980Z,0
2019-05-09T03:30:23.635Z,0
2019-05-09T03:31:19.627Z,0
2019-05-09T03:32:19.363Z,4
2019-05-09T03:33:20.050Z,4
2019-05-09T03:34:19.449Z,4
2019-05-09T03:35:17.227Z,4
2019-05-09T03:36:18.103Z,0
2019-05-09T03:37:17.609Z,4
2019-05-09T03:38:17.932Z,4
2019-05-09T03:39:18.471Z,4
2019-05-09T03:40:18.019Z,4
2019-05-09T03:41:17.761Z,4
2019-05-09T03:42:20.739Z,4
2019-05-09T03:43:18.317Z,4
2019-05-09T03:44:25.162Z,4
2019-05-09T03:45:18.184Z,8
2019-05-09T03:46:18.031Z,8
2019-05-09T03:47:17.306Z,8
2019-05-09T03:48:17.958Z,8
2019-05-09T03:49:17.941Z,8
2019-05-09T03:50:17.637Z,12
2019-05-09T03:51:18.327Z,12
2019-05-09T03:52:17.746Z,12
2019-05-09T03:53:18.406Z,12
2019-05-09T03:54:18.318Z,12
2019-05-09T03:55:17.856Z,12
2019-05-09T03:56:18.140Z,12
2019-05-09T04:02:58.002Z,20
2019-05-09T04:03:58.365Z,20
2019-05-09T04:04:58.177Z,20
2019-05-09T04:06:10.794Z,24
2019-05-09T04:06:58.034Z,24
2019-05-09T04:07:58.216Z,24
2019-05-09T04:09:01.220Z,24
2019-05-09T04:09:58.466Z,28
2019-05-09T04:11:01.480Z,24
2019-05-09T04:11:58.310Z,28
2019-05-09T04:13:04.890Z,28
2019-05-09T04:13:58.103Z,28
2019-05-09T04:14:58.375Z,32
2019-05-09T04:15:58.162Z,32
2019-05-09T04:16:57.487Z,32
2019-05-09T04:21:27.933Z,32
2019-05-09T04:22:27.139Z,32
2019-05-09T04:23:27.508Z,28
2019-05-09T04:24:27.920Z,24
2019-05-09T04:25:27.321Z,28
2019-05-09T04:26:27.647Z,32
2019-05-09T04:27:29.525Z,32
2019-05-09T04:28:27.747Z,28
2019-05-09T04:29:28.537Z,28
2019-05-09T04:30:27.403Z,32
2019-05-09T04:31:27.941Z,32
2019-05-09T04:32:27.346Z,32
2019-05-09T04:33:27.911Z,28
2019-05-09T04:34:27.602Z,32
2019-05-09T04:35:27.931Z,32
2019-05-09T04:36:27.255Z,32
2019-05-09T04:39:33.514Z,32
2019-05-09T04:39:53.904Z,36
2019-05-09T04:40:54.120Z,36
2019-05-09T04:41:54.910Z,36
2019-05-09T04:42:52.733Z,40
2019-05-09T04:43:51.307Z,40
2019-05-09T04:44:57.225Z,44
2019-05-09T04:45:53.150Z,48
2019-05-09T04:46:54.017Z,56
2019-05-09T04:47:52.442Z,64
2019-05-09T04:48:53.980Z,72
2019-05-09T04:49:53.295Z,76
2019-05-09T04:50:50.456Z,76
2019-05-09T04:51:50.913Z,72
2019-05-09T04:52:50.148Z,68
2019-05-09T04:53:50.732Z,68
2019-05-09T04:54:51.188Z,68
2019-05-09T04:55:50.552Z,68
2019-05-09T04:56:51.940Z,72
2019-05-09T04:57:51.477Z,88
2019-05-09T04:58:50.886Z,108
2019-05-09T04:59:50.194Z,124
2019-05-09T05:00:50.625Z,128
2019-05-09T05:01:50.448Z,116
2019-05-09T05:02:51.090Z,108
2019-05-09T05:03:50.994Z,104
2019-05-09T05:04:50.659Z,96
2019-05-09T05:05:50.846Z,92
2019-05-09T05:06:50.484Z,88
2019-05-09T05:07:50.740Z,92
2019-05-09T05:08:53.138Z,92
2019-05-09T05:09:51.351Z,92
2019-05-09T05:14:32.908Z,108
2019-05-09T05:14:47.563Z,104
2019-05-09T05:15:47.474Z,100
2019-05-09T05:16:52.846Z,96
2019-05-09T05:17:47.728Z,92
2019-05-09T05:18:45.245Z,88
2019-05-09T05:19:47.597Z,96
2019-05-09T05:20:48.001Z,100
2019-05-09T05:21:47.933Z,104
2019-05-09T05:22:47.770Z,108
2019-05-09T05:23:47.248Z,116
2019-05-09T05:24:48.441Z,120
2019-05-09T05:25:47.525Z,124
2019-05-09T05:26:47.898Z,128
2019-05-09T05:27:47.491Z,128
2019-05-09T05:28:47.431Z,128
2019-05-09T05:29:47.598Z,136
2019-05-09T05:30:47.509Z,144
2019-05-09T05:31:47.705Z,160
2019-05-09T05:32:48.730Z,164
2019-05-09T05:33:49.104Z,168
2019-05-09T05:34:45.639Z,156
2019-05-09T05:35:47.819Z,140
2019-05-09T05:36:47.630Z,136
2019-05-09T05:37:47.685Z,136
2019-05-09T05:38:47.754Z,128
2019-05-09T05:39:47.269Z,128
2019-05-09T05:40:57.614Z,132
2019-05-09T05:41:45.723Z,136
2019-05-09T05:42:47.709Z,144
2019-05-09T05:43:53.269Z,152
2019-05-09T05:44:47.588Z,156
2019-05-09T05:45:47.731Z,156
2019-05-09T05:46:49.973Z,160
2019-05-09T05:47:48.292Z,156
2019-05-09T05:48:48.422Z,156
2019-05-09T05:49:48.542Z,156
2019-05-09T05:50:48.149Z,156
2019-05-09T05:51:48.020Z,156
2019-05-09T05:54:52.979Z,180
2019-05-09T05:55:07.518Z,180
2019-05-09T05:56:08.295Z,188
2019-05-09T05:57:08.118Z,184
2019-05-09T05:58:08.279Z,180
2019-05-09T05:59:08.293Z,188
2019-05-09T06:00:07.816Z,196
2019-05-09T06:01:10.900Z,216
2019-05-09T06:02:08.522Z,232
2019-05-09T06:03:08.707Z,224
2019-05-09T06:04:07.585Z,216
2019-05-09T06:05:08.193Z,224
2019-05-09T06:06:08.490Z,244
2019-05-09T06:07:07.933Z,272
2019-05-09T06:08:07.932Z,300
2019-05-09T06:09:08.246Z,312
2019-05-09T06:10:07.966Z,348
2019-05-09T06:11:09.214Z,396
2019-05-09T06:12:08.188Z,484
2019-05-09T06:13:07.702Z,600
2019-05-09T06:14:18.377Z,1004
2019-05-09T06:15:07.533Z,1024
2019-05-09T06:16:08.339Z,2724
2019-05-09T06:17:07.831Z,872
2019-05-09T06:18:07.899Z,1288
2019-05-09T06:19:08.701Z,864
2019-05-09T06:20:08.864Z,752
2019-05-09T06:21:08.560Z,664
2019-05-09T06:22:05.285Z,620
2019-05-09T06:23:08.359Z,616
2019-05-09T06:24:08.382Z,540
2019-05-09T06:25:09.527Z,496
2019-05-09T06:26:09.813Z,520
2019-05-09T06:27:12.125Z,568
2019-05-09T06:28:07.626Z,548
2019-05-09T06:29:05.509Z,560
2019-05-09T06:30:08.346Z,596
2019-05-09T06:31:07.516Z,644
2019-05-09T06:32:07.777Z,788
2019-05-09T06:33:11.767Z,952
2019-05-09T06:34:08.023Z,1020
2019-05-09T06:35:08.071Z,1684
2019-05-09T06:36:07.929Z,1360
2019-05-09T06:37:11.717Z,1420
2019-05-09T06:38:07.842Z,3120
2019-05-09T06:39:08.254Z,2616
2019-05-09T06:40:08.069Z,2920
2019-05-09T06:41:06.003Z,2004
2019-05-09T06:42:05.444Z,3040
2019-05-09T06:43:08.012Z,2832
2019-05-09T06:44:25.012Z,3104
2019-05-09T06:45:07.686Z,3044
2019-05-09T06:46:07.827Z,1660
2019-05-09T06:47:08.230Z,1328
2019-05-09T06:48:10.260Z,2216
2019-05-09T06:49:34.770Z,1120
2019-05-09T06:50:07.695Z,2624
2019-05-09T06:51:07.308Z,1360
2019-05-09T06:52:05.949Z,2624
2019-05-09T06:53:07.370Z,2628
2019-05-09T06:54:08.112Z,2668
2019-05-09T06:55:08.346Z,2728
2019-05-09T06:56:07.393Z,2840
2019-05-09T06:57:07.927Z,2912
2019-05-09T06:58:06.182Z,3100
2019-05-09T06:59:07.594Z,2980
2019-05-09T07:00:05.868Z,2332
2019-05-09T07:01:07.655Z,1360
2019-05-09T07:02:05.472Z,832
2019-05-09T07:03:10.817Z,1048
2019-05-09T07:04:05.394Z,1672
2019-05-09T07:05:07.603Z,2952
2019-05-09T07:06:05.410Z,2928
2019-05-09T07:07:07.932Z,2924
2019-05-09T07:08:08.092Z,2928
2019-05-09T07:09:08.341Z,2940
2019-05-09T07:10:07.547Z,2916
2019-05-09T07:11:07.549Z,2936
2019-05-09T07:12:07.838Z,2992
2019-05-09T07:13:07.878Z,3036
2019-05-09T07:14:05.836Z,3044
2019-05-09T07:15:08.477Z,3060
2019-05-09T07:16:06.279Z,3080
2019-05-09T07:17:08.169Z,3140
2019-05-09T07:18:07.865Z,3204
2019-05-09T07:19:07.776Z,3272
2019-05-09T07:20:08.361Z,2904
2019-05-09T07:21:07.974Z,3328
2019-05-09T07:22:05.879Z,3340
2019-05-09T07:23:08.368Z,3388
2019-05-09T07:24:07.892Z,3524
2019-05-09T07:31:42.619Z,3696
2019-05-09T07:31:57.288Z,3712
2019-05-09T07:32:54.039Z,3756
2019-05-09T07:33:58.460Z,3704
2019-05-09T07:34:55.337Z,1752
2019-05-09T07:35:57.839Z,4100
2019-05-09T07:36:57.852Z,1140
2019-05-09T07:37:54.108Z,4116
2019-05-09T07:38:57.975Z,3952
2019-05-09T07:39:53.793Z,3936
2019-05-09T07:40:57.829Z,3904
2019-05-09T07:42:58.093Z,2944
2019-05-09T07:43:57.984Z,2560
2019-05-09T07:45:01.860Z,3836
2019-05-09T07:46:00.602Z,956
2019-05-09T07:46:55.320Z,1108
2019-05-09T07:47:58.244Z,648
2019-05-09T07:48:57.744Z,732
2019-05-09T07:49:58.302Z,1268
2019-05-09T07:50:59.482Z,524
2019-05-09T07:51:55.540Z,452
2019-05-09T07:52:57.864Z,504
2019-05-09T07:53:58.556Z,612
2019-05-09T07:54:57.979Z,2604
2019-05-09T07:55:55.187Z,3208
2019-05-09T07:56:53.909Z,2800
2019-05-09T07:58:04.528Z,2232
2019-05-09T07:58:55.622Z,2504
2019-05-09T07:59:58.194Z,532
2019-05-09T08:00:59.236Z,456
2019-05-09T08:01:58.059Z,356
2019-05-09T08:02:57.885Z,304
2019-05-09T08:03:54.426Z,280
2019-05-09T08:04:54.334Z,268
2019-05-09T08:05:57.909Z,260
2019-05-09T08:06:57.649Z,276
2019-05-09T08:07:58.486Z,316
2019-05-09T08:08:57.800Z,356
2019-05-09T08:09:57.656Z,364
2019-05-09T08:10:57.811Z,376
2019-05-09T08:11:58.422Z,388
2019-05-09T08:12:58.228Z,416
2019-05-09T08:13:57.496Z,432
2019-05-09T08:15:23.177Z,564
2019-05-09T08:15:55.747Z,540
2019-05-09T08:16:57.751Z,700
2019-05-09T08:17:58.967Z,604
2019-05-09T08:18:57.739Z,612
2019-05-09T08:19:58.253Z,608
2019-05-09T08:20:57.737Z,552
2019-05-09T08:21:57.477Z,516
2019-05-09T08:23:08.624Z,464
2019-05-09T08:23:57.825Z,432
2019-05-09T08:24:57.603Z,396
2019-05-09T08:25:57.868Z,372
2019-05-09T08:26:57.740Z,352
2019-05-09T08:27:58.453Z,360
2019-05-09T08:28:58.047Z,352
2019-05-09T08:29:58.071Z,352
2019-05-09T08:30:58.464Z,388
2019-05-09T08:31:58.207Z,432
2019-05-09T08:32:56.170Z,484
2019-05-09T08:33:58.925Z,572
2019-05-09T08:34:57.590Z,668
2019-05-09T08:36:01.226Z,772
2019-05-09T08:36:57.717Z,1304
2019-05-09T08:37:57.918Z,1488
2019-05-09T08:38:58.237Z,1208
2019-05-09T08:39:57.720Z,1536
2019-05-09T08:40:58.762Z,1200
2019-05-09T08:41:59.175Z,1324
2019-05-09T08:42:57.993Z,1344
2019-05-09T08:43:57.530Z,1260
2019-05-09T08:45:03.106Z,1272
2019-05-09T08:45:57.579Z,1320
2019-05-09T08:46:57.370Z,1620
2019-05-09T08:47:57.708Z,1688
2019-05-09T08:48:57.538Z,1116
2019-05-09T08:49:55.200Z,968
2019-05-09T08:50:58.224Z,1000
2019-05-09T08:52:21.631Z,780
2019-05-09T08:52:57.578Z,736
2019-05-09T08:53:57.776Z,668
2019-05-09T08:54:57.798Z,640
2019-05-09T08:55:57.787Z,632
2019-05-09T08:56:55.429Z,660
2019-05-09T08:57:58.323Z,980
2019-05-09T08:59:03.836Z,1188
2019-05-09T08:59:58.882Z,1240
2019-05-09T09:00:54.524Z,1384
2019-05-09T09:02:25.110Z,1672
2019-05-09T09:02:57.358Z,1736
2019-05-09T09:03:57.544Z,1144
2019-05-09T09:04:58.158Z,940
2019-05-09T09:05:57.686Z,728
2019-05-09T09:06:57.611Z,656
2019-05-09T09:07:57.748Z,628
2019-05-09T09:08:57.503Z,1956
2019-05-09T09:09:57.697Z,1948
2019-05-09T09:10:57.749Z,1720
2019-05-09T09:11:58.041Z,1900
2019-05-09T09:12:57.693Z,800
2019-05-09T09:13:57.633Z,812
2019-05-09T09:15:07.703Z,1616
2019-05-09T09:16:25.291Z,984
2019-05-09T09:16:57.538Z,888
2019-05-09T09:17:57.988Z,892
2019-05-09T09:18:58.325Z,1052
2019-05-09T09:19:58.183Z,1580
2019-05-09T09:20:58.625Z,2052
2019-05-09T09:22:02.777Z,1200
2019-05-09T09:22:57.933Z,1720
2019-05-09T09:24:00.872Z,1924
2019-05-09T09:24:55.940Z,1656
2019-05-09T09:25:58.215Z,1416
2019-05-09T09:26:57.363Z,1052
2019-05-09T09:28:00.933Z,1048
2019-05-09T09:28:57.710Z,1240
2019-05-09T09:29:58.417Z,1160
2019-05-09T09:35:13.480Z,764
2019-05-09T09:35:30.351Z,740
2019-05-09T09:36:28.126Z,648
2019-05-09T09:37:32.650Z,556
2019-05-09T09:38:28.093Z,492
2019-05-09T09:39:31.337Z,452
2019-05-09T09:40:27.977Z,456
2019-05-09T09:41:28.657Z,564
2019-05-09T09:42:30.746Z,524
2019-05-09T09:43:28.028Z,504
2019-05-09T09:44:31.412Z,480
2019-05-09T09:45:30.527Z,480
2019-05-09T09:46:28.527Z,492
2019-05-09T09:47:34.125Z,520
2019-05-09T09:48:28.438Z,532
2019-05-09T09:49:29.253Z,544
2019-05-09T09:50:27.733Z,548
2019-05-09T09:51:30.196Z,536
2019-05-09T09:52:29.287Z,528
2019-05-09T09:53:27.900Z,512
2019-05-09T09:54:28.175Z,504
2019-05-09T09:55:27.895Z,512
2019-05-09T09:56:30.982Z,564
2019-05-09T09:57:28.820Z,648
2019-05-09T09:58:27.520Z,752
2019-05-09T09:59:28.273Z,1128
2019-05-09T10:00:27.466Z,964
2019-05-09T10:01:28.678Z,916
2019-05-09T10:02:30.517Z,964
2019-05-09T10:03:27.571Z,1084
2019-05-09T10:04:34.023Z,1296
2019-05-09T10:05:30.344Z,1604
2019-05-09T10:06:28.414Z,1340
2019-05-09T10:07:27.988Z,1672
2019-05-09T10:08:27.505Z,1676
2019-05-09T10:09:27.472Z,1612
2019-05-09T10:10:28.650Z,1576
2019-05-09T10:11:28.591Z,1348
2019-05-09T10:12:28.544Z,1484
2019-05-09T10:13:28.522Z,1388
2019-05-09T10:14:28.383Z,1124
2019-05-09T10:15:28.161Z,1148
2019-05-09T10:16:38.979Z,1064
2019-05-09T10:17:30.776Z,1352
2019-05-09T10:18:30.236Z,1664
2019-05-09T10:19:27.859Z,1804
2019-05-09T10:20:29.120Z,1896
2019-05-09T10:21:30.227Z,1240
2019-05-09T10:22:32.969Z,1108
2019-05-09T10:23:29.632Z,1148
2019-05-09T10:24:28.145Z,1204
2019-05-09T10:25:30.112Z,1364
2019-05-09T10:26:28.335Z,952
2019-05-09T10:27:28.302Z,728
2019-05-09T10:28:33.118Z,672
2019-05-09T10:29:27.931Z,664
2019-05-09T10:30:28.515Z,732
2019-05-09T10:31:28.208Z,672
2019-05-09T10:32:28.773Z,632
2019-05-09T10:33:28.075Z,616
2019-05-09T10:34:28.761Z,572
2019-05-09T10:35:27.958Z,592
2019-05-09T10:36:27.913Z,540
2019-05-09T10:37:27.585Z,500
2019-05-09T10:38:28.028Z,488
2019-05-09T10:39:30.250Z,540
2019-05-09T10:40:28.226Z,664
2019-05-09T10:41:27.573Z,992
2019-05-09T10:42:28.579Z,1364
2019-05-09T10:43:44.360Z,1252
2019-05-09T10:44:28.371Z,980
2019-05-09T10:49:45.039Z,860
2019-05-09T10:49:58.135Z,860
2019-05-09T10:51:13.169Z,1000
2019-05-09T10:51:58.032Z,996
2019-05-09T10:52:58.378Z,960
2019-05-09T10:53:58.682Z,928
2019-05-09T10:54:57.991Z,820
2019-05-09T10:55:57.281Z,724
2019-05-09T10:56:57.931Z,656
2019-05-09T10:58:07.731Z,604
2019-05-09T10:58:58.406Z,576
2019-05-09T10:59:57.935Z,564
2019-05-09T11:00:58.621Z,556
2019-05-09T11:05:30.312Z,528
2019-05-09T11:06:28.645Z,548
2019-05-09T11:07:28.930Z,580
2019-05-09T11:08:28.588Z,616
2019-05-09T11:09:29.044Z,636
2019-05-09T11:10:39.302Z,656
2019-05-09T11:11:28.566Z,680
2019-05-09T11:12:30.419Z,680
2019-05-09T11:13:28.654Z,660
2019-05-09T11:14:42.787Z,684
2019-05-09T11:15:27.876Z,720
2019-05-09T11:16:47.127Z,824
2019-05-09T11:17:31.263Z,900
2019-05-09T11:18:28.688Z,996
2019-05-09T11:19:48.309Z,1080
2019-05-09T11:20:30.957Z,1096
2019-05-09T11:21:31.007Z,1252
2019-05-09T11:22:34.228Z,1436
2019-05-09T11:23:29.152Z,1928
2019-05-09T11:24:52.534Z,1340
2019-05-09T11:25:30.311Z,1404
2019-05-09T11:26:31.011Z,1104
2019-05-09T11:27:29.114Z,1132
2019-05-09T11:28:28.520Z,1108
2019-05-09T11:29:28.164Z,1268
2019-05-09T11:30:28.312Z,996
2019-05-09T11:31:29.394Z,936
2019-05-09T11:32:30.262Z,876
2019-05-09T11:33:30.470Z,792
2019-05-09T11:34:27.869Z,708
2019-05-09T11:35:28.085Z,620
2019-05-09T11:36:29.482Z,560
2019-05-09T11:37:30.040Z,524
2019-05-09T11:38:52.067Z,500
2019-05-09T11:41:08.256Z,516
2019-05-09T11:41:22.050Z,520
2019-05-09T11:42:20.821Z,540
2019-05-09T11:43:20.762Z,564
2019-05-09T11:44:21.096Z,600
2019-05-09T11:45:20.599Z,648
2019-05-09T11:46:20.807Z,704
2019-05-09T11:47:50.673Z,832
2019-05-09T11:48:21.362Z,884
2019-05-09T11:49:20.644Z,1064
2019-05-09T11:50:25.402Z,1300
2019-05-09T11:51:24.692Z,1356
2019-05-09T11:52:21.094Z,1848
2019-05-09T11:53:20.264Z,1368
2019-05-09T11:54:22.688Z,1208
2019-05-09T11:55:48.145Z,1352
2019-05-09T11:56:20.743Z,1176
2019-05-09T11:57:21.808Z,1092
2019-05-09T11:58:20.868Z,1496
2019-05-09T11:59:21.658Z,1352
2019-05-09T12:00:20.619Z,1068
2019-05-09T12:01:21.548Z,812
2019-05-09T12:02:20.688Z,756
2019-05-09T12:03:21.578Z,720
2019-05-09T12:04:21.423Z,732
2019-05-09T12:05:21.901Z,864
2019-05-09T12:06:23.315Z,844
2019-05-09T12:07:20.541Z,836
2019-05-09T12:08:20.406Z,736
2019-05-09T12:09:22.564Z,668
2019-05-09T12:10:21.417Z,648
2019-05-09T12:11:21.096Z,616
2019-05-09T12:12:22.415Z,528
2019-05-09T12:13:21.311Z,456
2019-05-09T12:14:19.890Z,400
2019-05-09T12:15:23.088Z,344
2019-05-09T12:16:24.087Z,288
2019-05-09T12:17:25.378Z,260
2019-05-09T12:18:25.306Z,256
2019-05-09T12:19:22.312Z,260
2019-05-09T12:20:27.669Z,264
2019-05-09T12:21:22.060Z,280
2019-05-09T12:22:22.192Z,288
2019-05-09T12:23:22.977Z,288
2019-05-09T12:24:21.223Z,296
2019-05-09T12:25:23.776Z,304
2019-05-09T12:26:23.324Z,324
2019-05-09T12:27:23.650Z,352
2019-05-09T12:28:24.094Z,388
2019-05-09T12:29:24.901Z,420
2019-05-09T12:30:21.567Z,432
2019-05-09T12:31:20.864Z,432
2019-05-09T12:32:21.457Z,424
2019-05-09T12:33:24.149Z,408
2019-05-09T12:34:24.729Z,408
2019-05-09T12:35:24.831Z,404
2019-05-09T12:36:21.853Z,404
2019-05-09T12:37:20.962Z,400
2019-05-09T12:38:20.806Z,400
2019-05-09T12:39:21.564Z,396
2019-05-09T12:40:22.803Z,396
2019-05-09T12:41:22.091Z,400
2019-05-09T12:42:21.239Z,388
2019-05-09T12:43:21.204Z,384
2019-05-09T12:44:24.691Z,384
2019-05-09T12:45:23.378Z,408
2019-05-09T12:46:19.551Z,452
2019-05-09T12:47:22.092Z,512
2019-05-09T12:48:24.756Z,584
2019-05-09T12:49:21.745Z,640
2019-05-09T12:50:24.900Z,680
2019-05-09T12:51:23.811Z,708
2019-05-09T12:52:25.534Z,780
2019-05-09T12:53:34.168Z,1000
2019-05-09T12:54:21.730Z,1300
2019-05-09T12:55:23.967Z,888
2019-05-09T12:56:21.437Z,804
2019-05-09T12:57:21.992Z,800
2019-05-09T12:58:23.082Z,808
2019-05-09T12:59:28.709Z,796
2019-05-09T13:00:25.210Z,964
2019-05-09T13:01:25.171Z,744
2019-05-09T13:02:27.228Z,696
2019-05-09T13:03:20.514Z,652
2019-05-09T13:04:19.537Z,628
2019-05-09T13:05:21.190Z,616
2019-05-09T13:06:22.832Z,592
2019-05-09T13:07:21.425Z,600
2019-05-09T13:08:23.140Z,600
2019-05-09T13:09:23.858Z,680
2019-05-09T13:10:28.212Z,656
2019-05-09T13:11:24.848Z,668
2019-05-09T13:12:23.936Z,696
2019-05-09T13:13:23.735Z,696
2019-05-09T13:14:22.148Z,700
2019-05-09T13:15:42.137Z,720
2019-05-09T13:16:38.945Z,800
2019-05-09T13:17:23.384Z,1048
2019-05-09T13:18:34.716Z,800
2019-05-09T13:19:21.145Z,816
2019-05-09T13:20:20.624Z,732
2019-05-09T13:21:21.547Z,708
2019-05-09T13:22:21.231Z,660
2019-05-09T13:23:20.928Z,632
2019-05-09T13:24:22.346Z,592
2019-05-09T13:25:21.576Z,548
2019-05-09T13:26:21.339Z,504
2019-05-09T13:27:21.624Z,440
2019-05-09T13:28:20.355Z,392
2019-05-09T13:29:19.738Z,360
2019-05-09T13:30:21.919Z,380
2019-05-09T13:31:20.873Z,432
2019-05-09T13:32:20.844Z,456
2019-05-09T13:33:21.570Z,472
2019-05-09T13:34:21.554Z,476
2019-05-09T13:35:24.012Z,472
2019-05-09T13:36:21.565Z,460
2019-05-09T13:37:21.617Z,460
2019-05-09T13:38:20.640Z,456
2019-05-09T13:39:20.663Z,468
2019-05-09T13:40:21.617Z,516
2019-05-09T13:41:20.722Z,556
2019-05-09T13:42:22.349Z,580
2019-05-09T13:43:21.713Z,624
2019-05-09T13:44:23.414Z,704
2019-05-09T13:45:28.571Z,904
2019-05-09T13:46:20.621Z,932
2019-05-09T13:47:20.851Z,960
2019-05-09T13:49:15.480Z,744
2019-05-09T13:49:28.555Z,720
2019-05-09T13:50:28.325Z,664
2019-05-09T13:51:28.247Z,652
2019-05-09T13:52:30.161Z,600
2019-05-09T13:53:31.364Z,564
2019-05-09T13:54:33.883Z,556
2019-05-09T13:55:32.290Z,500
2019-05-09T13:56:33.234Z,456
2019-05-09T13:57:32.358Z,412
2019-05-09T13:58:28.435Z,416
2019-05-09T13:59:29.982Z,476
2019-05-09T14:00:28.594Z,500
2019-05-09T14:05:47.926Z,480
2019-05-09T14:06:04.395Z,220
2019-05-09T14:07:02.057Z,228
2019-05-09T14:08:14.507Z,204
2019-05-09T14:09:02.384Z,172
2019-05-09T14:09:59.498Z,128
2019-05-09T14:11:01.479Z,80
2019-05-09T14:12:04.147Z,60
2019-05-09T14:13:24.510Z,48
2019-05-09T14:14:00.406Z,44
2019-05-09T14:15:01.098Z,40
2019-05-09T14:16:22.401Z,36
2019-05-09T14:17:02.409Z,36
2019-05-09T14:18:03.828Z,36
2019-05-09T14:19:41.756Z,40
2019-05-09T14:20:00.820Z,40
2019-05-09T14:21:02.720Z,40
2019-05-09T14:22:04.270Z,52
2019-05-09T14:23:11.382Z,76
2019-05-09T14:24:24.630Z,116
2019-05-09T14:25:02.208Z,132
2019-05-09T14:26:02.748Z,156
2019-05-09T14:27:00.956Z,168
2019-05-09T14:28:01.168Z,176
2019-05-09T14:29:01.971Z,180
2019-05-09T14:30:04.519Z,176
2019-05-09T14:31:02.228Z,172
2019-05-09T14:32:08.772Z,168
2019-05-09T14:33:10.893Z,164
2019-05-09T14:34:08.734Z,156
2019-05-09T14:35:08.481Z,152
2019-05-09T14:36:04.246Z,152
2019-05-09T14:37:01.290Z,156
2019-05-09T14:38:01.835Z,156
2019-05-09T14:39:00.711Z,152